FDA 510(k) Applications Received During April, 1985

FDA 510(k) Number Submission Date Device Name Applicant Contact
K851459 04/11/1985 VISILUX 2 VISIBLE LIGHT CURING UNIT 3M COMPANY DON MCKENZIE
K851878 04/29/1985 A COMPANY BRASS SEPARATING RINGS A COMPANY, INC. JOE MONFREDO
K851454 04/11/1985 A-COMPANY STAINLESS STEEL ORTHODONTIC BRACKETS A COMPANY, INC. JOE MONFREDO
K851569 04/17/1985 VERA BOND NON PERCIOUS CERAMIC ALLOY AALBA DENT, INC. & CHENG
K851573 04/17/1985 ABBOTT PHARAMACOKINETICS SYSTEMS ABBOTT LABORATORIES MARY E ZORC
K851676 04/23/1985 TDX TOTAL T3 ABBOTT LABORATORIES MATT KLAMRZYNSKI
K851314 04/02/1985 ABCO DRAPES/TOWELS ABCO DEALERS, INC. CHRISTINE NEMETH
K851315 04/02/1985 ABCO INSTRUMENT PACKS & TRAYS ABCO DEALERS, INC. CHRISTINE NEMETH
K851312 04/02/1985 ABCO ISOLATION MASKS ABCO DEALERS, INC. CHRISTINE NEMETH
K851309 04/02/1985 ABCO PLASTIC UTENSILS ABCO DEALERS, INC. CHRISTINE MEMETH
K851316 04/02/1985 ABCO SUCTION CANISTER ABCO DEALERS, INC. CHRISTINE NEMETH
K851313 04/02/1985 ABCO SUTURE REMOVAL KITS-METAL & PLASTIC FORCEPS ABCO DEALERS, INC. CHRISTINE NEMETH
K851493 04/15/1985 KINYOUN ACID FAST STAIN KIT ACCRA LABORATORIES, INC. ROBERT C THATCHER
K851494 04/15/1985 TWO-STEP ACID FAST BACTERIA STAIN ACCRA LABORATORIES, INC. ROBERT C THATCHER
K851854 04/26/1985 ADVANCED CARDIOVASCULAR SYS LOW PROFILE PTA BALLOO ADVANCED CARDIOVASCULAR SYSTEMS, INC. MARIANNA F BRESHINI
K851574 04/17/1985 MODIFICATIONS TO ACS CORONARY GUIDING CATHETER W/T ADVANCED CARDIOVASCULAR SYSTEMS, INC. JANE E BEGGS
K851512 04/15/1985 ALLERGENETICS IGE FAST TEST ALLERGENETICS YUH-GENG TSAY
K851272 04/01/1985 VERSAPHAGE ALPHAMEDIX, INC. CARL R JORDAN
K851638 04/19/1985 CLINALYZER MODEL VX-1000 ALPKEM CORP. WILLIAM H SOUDER
K851542 04/16/1985 RFA-300 RAPID FLOW ANALYZER W/COMPUTER ALPKEM CORP. OR WI
K851376 04/08/1985 VENOUS RESERVOIR BAG BMR-1600 AMERICAN BENTLEY DONALD A RAIBLE
K851401 04/09/1985 VENUOS RESERVOIR BAG BMR-1900 AMERICAN BENTLEY DONALD A RAIBLE
K851330 04/04/1985 PROLACTIN SYSTEM BY RIA AMERICAN BIOCLINICAL, INC. JAN BALDWIN
K851374 04/08/1985 AMERICAN EDWARDS SMALL DIAMETER RIGID ENDOSCOPE AMERICAN EDWARDS LABORATORIES RONALD J EHMSEN
K851406 04/09/1985 AJDJUSTABLE SUCTION CONTROL VALVE AMERICAN OMNI MEDICAL, INC. GEORGE G SIPOSS
K851465 04/11/1985 SILENT GUARD CAT. NO. SG-30 AMERICAN OMNI MEDICAL, INC. GEORGE G SIPOSS
K851334 04/01/1985 AIRLIFE ELECTRONIC INCENTIVE SPIROMETER AMERICAN PHARMASEAL DIV. AHSC LAWRNECE W GETLIN
K851340 04/03/1985 BLUE SEAL II STERILIZATION POUCH AMERICAN STERILIZER CO. JAMES A SPALLINA
K851823 04/26/1985 DISPOSABLE ISOLATION GOWN AMERICAN THRESHOLD INDUSTRIES, INC. ROBERT T BAYER
K851361 04/04/1985 AMERLEX-M FOLLICLE STIMULATING HORMONE(FSH)RADIOIM AMERSHAM CORP. PHILIP M FANTASIA
K851865 04/29/1985 AMRESCO FLOW PAC SMA PHOSPHATE BUFFER CONCENTRATE AMRESCO, INC. TIMOTHY J BELCASTRO
K851387 04/09/1985 MICROSTATIC URINE TRANSPORT TUBE FOR C & S ANALYTICAL LUMINESCENCE LABORATORY, INC. JON C WANNLUND
K851408 04/09/1985 SUN FLOWER SOLETTE MINETTE NOVA SUPER 28X, PRO SER APPLIED SCIENCE, INC. JOHN F LAZEAR
K851705 04/25/1985 LARYNGOSCOPE ARMSTRONG IND., INC. KAREN BOWERS
K851745 04/25/1985 1-100 UNIVERSAL SET OTOSCOPE & LARYNX EXPLORATON B ARTIBERIA GIL M SANCHEZ
K851746 04/25/1985 1-110 OTOSCOPE SET BATTERY POWERED DIAG. SET 3PCS. ARTIBERIA GIL M SANCHEZ
K851749 04/25/1985 1-380 PINWHEEL (WARTENBERG) ARTIBERIA GIL M SANCHEZ
K851748 04/25/1985 1/310, 1-320 PERCUSSION HAMMERS,TAYLOR, DEJERINE ARTIBERIA GIL M SANCHEZ
K851719 04/25/1985 1070/15 TO 1078/17 VARIOUS TYPES NEEDLE HOLDERS ARTIBERIA GIL M SANCHEZ
K851720 04/25/1985 1155/1 TO 1162/12 VARIOUS TYPES GUM SCISSORS ARTIBERIA GIL M SANCHEZ
K851721 04/25/1985 1200/1 TO 1240/15 VARIOUS TYPES OF DENTAL SCALERS ARTIBERIA GIL M SANCHEZ
K851722 04/25/1985 1285/5 TO 1295 VARIOUS TYPES OF DENTAL EXCAVATORS ARTIBERIA GIL M SANCHEZ
K851753 04/25/1985 13-100 TO 13-158 VARIOUS TYPES OF OPERATING SCISSO ARTIBERIA GIL M SANCHEZ
K851754 04/25/1985 13-160 INCISION SCISSORS, TWO SIZES ARTIBERIA GIL M SANCHEZ
K851755 04/25/1985 13-170 DEAVER SCISSOR, TWO SIZES ARTIBERIA GIL M SANCHEZ
K851756 04/25/1985 13-180 TO 13-212 VARIOUS MODELS OF MAYO SCISSORS ARTIBERIA GIL M SANCHEZ
K851757 04/25/1985 13-220 TOW TYPES OF LEXER SCISSORS ARTIBERIA GIL M SANCHEZ
K851758 04/25/1985 13-224 TO 13-258 VARIOUS METZENBAUM SCISSORS ARTIBERIA GIL M SANCHEZ
K851759 04/25/1985 13-260 TWO SIZES OF JOSEPH SCISSORS ARTIBERIA GIL M SANCHEZ
K851760 04/25/1985 13-270 KILNER SCISSORS ARTIBERIA GIL M SANCHEZ
K851761 04/25/1985 13-280 NEURO SCISSORS ARTIBERIA GIL M SANCHEZ
K851762 04/25/1985 13-290 VARIOUS TONSIL SCISSORS-STRULLY, YANKAUER, ARTIBERIA GIL M SANCHEZQ
K851763 04/25/1985 13-320,13-330 TWO TYPES NAZAL SCISSORS-HEYMAN,BECK ARTIBERIA GIL M SANCHEZ
K851764 04/25/1985 13-340,13-350,13-360 LIGATURE SCISSORE SPENCER/LIT ARTIBERIA GIL M SANCHEZ
K851765 04/25/1985 13-440 TO 13-464 VARIOUS DISSECTING SCISSORS ARTIBERIA GIL M SANCHEZ
K851766 04/25/1985 13-470 TO 13-518 VARIOUS UTERINE SCISSORS ARTIBERIA GIL M SANCHEZ
K851767 04/25/1985 13-530 TO 13-542 VARIOUS IRIS SCISSORS ARTIBERIA GIL M SANCHEZ
K851768 04/25/1985 13-550,13-560 WESCOTT SCOSSORS (EYE) ARTIBERIA GIL M SANCHEZ
K851723 04/25/1985 1300/10 TO 1305/89-92 VARIOUS CUTTING INSTRUMENTS ARTIBERIA GIL M SANCHEZ
K851724 04/25/1985 1410/1 TO 1435/13 VARIOUS PROBES & EXPLORERS ARTIBERIA GIL M SANCHEZ
K851771 04/25/1985 15-490 TO 15-520 VARIOUS SPLINTER FORCEPS PEET, ST ARTIBERIA GIL M SANCHEZ
K851772 04/25/1985 17-100,17-272 VARIOUS HAEMOSTATIC FORCEPS ARTIBERIA GIL M SANCHEZ
K851773 04/25/1985 17-280,17-576 HAEMOSTATIC FORCEPS SPENCERUELLS, KI ARTIBERIA GIL M SANCHEZ
K851774 04/25/1985 17-900 TO 17-980 VARIOUS TOWEL CLAMPS ARTIBERIA GIL M SANCHEZ
K851726 04/25/1985 1760/1 TO 2010/34 VARIOUS DENTAL FILLING INSTRUMEN ARTIBERIA GIL M SANCHEZ
K851775 04/25/1985 19-790 TO 19-1042 DRESSING/SPONGE FORCEPS ARTIBERIA GIL M SANCHEZ
K851727 04/25/1985 2020-1/2 TO 2220 VARIOUS DENTAL WAX & MODELLING CA ARTIBERIA GIL M SANCHEZ
K851776 04/25/1985 21-450 GELPI RETRACTOR ARTIBERIA GIL M SANCHEZ
K851728 04/25/1985 2250/1 TO 2285/2 VARIOUS COTTON TWEEZERS ARTIBERIA GIL M SANCHEZ
K851777 04/25/1985 23-100 TO 23-124 VARIOUS TYPES OF PROBES ARTIBERIA GIL M SANCHEZ
K851778 04/25/1985 23-130 TO 23-144 TWO TYPES OF DIRECTORS ARTIBERIA GIL M SANCHEZ
K851779 04/25/1985 25-100,25-220 VARIOUS NEEDLE HOLDERS ARTIBERIA GIL M SANCHEZ
K851780 04/25/1985 25-230 TO 25-390 VARIOUS NEEDLE HOLDERS ARTIBERIA GIL M SANCHEZ
K851781 04/25/1985 25-420 TO 25-436 VARIOUS TYPES OF SUTURE NEEDLES ARTIBERIA GIL M SANCHEZ
K851782 04/25/1985 25-450 TO 25-540 VARIOUS SUTURE FORCEPS ARTIBERIA GIL M SANCHEZ
K851729 04/25/1985 2620/1 TO 2635/2 VARIOUS DENTAL CROWN SCISSORS ARTIBERIA GIL SANCHEZ
K851783 04/25/1985 27-100 TO 27-180 VARIOUS PLASTER SCISSORS/SHEARS ARTIBERIA GIL M SANCHEZ
K851787 04/25/1985 27-100 TO 29-130 VARIOUS BONE SAWS-CHARRIERE, SATT ARTIBERIA GIL M SANCHEZ
K851784 04/25/1985 27-210 PLASTER KNIFE (REINER) ARTIBERIA GIL M SANCHEZ
K851786 04/25/1985 27-230 TO 27-234 VARIOUS CAST BREAKERS, WOLF ARTIBERIA GIL M SANCHEZ
K851730 04/25/1985 2710 TO 2935 VARIOUS PLIERS FOR ORTHODONTICS/PROST ARTIBERIA GIL SANDHEZ
K851788 04/25/1985 29-140 TO 29-196 VARIOUS BONE CHISELS (OSTEOTOMES, ARTIBERIA GIL M SANCHEZ
K851789 04/25/1985 29-200 TO 29-230 VARIOUS BONE MALLETS(WIHIGER, DOY ARTIBERIA GIL M SANCHEZ
K851790 04/25/1985 37-200 TO 37-246 VARIOUS OPHTHALMOLOGY SCALPELS/KN ARTIBERIA GIL M SANCHEZ
K851791 04/25/1985 37-610 TO 37-880 VARIOUS OPHTHAL-FORCEPS ARTIBERIA GIL M SANCHEZ
K851792 04/25/1985 37-940 TO 37-944 VARIOUS NOYES OPHTHALMIC FORCEPS ARTIBERIA GIL M SANCHEZ
K851793 04/25/1985 39-260 TO 39-299 VARIOUS FOREIGN BODY FORCEPS ARTIBERIA GIL M SANCHEZ
K851794 04/25/1985 41-180 TO 41-246 VARIOUS NASAL FORCEPS ARTIBERIA GIL M SANCHEZ
K851795 04/25/1985 41-250 TO 41-282 VARIOUS NASAL CUTTING FORCEPS ARTIBERIA SANCHEZ
K851708 04/25/1985 500/1 TO 500/80 VARIOUS TYPES OF ENGLISH PAT DENTA ARTIBERIA GIL M SANCHEZ
K851796 04/25/1985 51-210 TO 51-352 VARIOUS INTEST FOR CALLIS, LOCKWO ARTIBERIA GIL M SANCHEZ
K851797 04/25/1985 53-100 TO 53-120 VARIOUS RECTAL SPECULA(SIMS, MATH ARTIBERIA GIL M SANCHEZ
K851798 04/25/1985 53-160 TO 53-167 VARIOUS BIOPSY FORCEPS YEOMAN ARTIBERIA GIL M SANCHEZ
K851709 04/25/1985 560 TO 577 VARIOUS TYPES OF FORCEPS FOR CHILDREN ARTIBERIA GIL M SANCHEZ
K851710 04/25/1985 586 TO 596 VARIOUS TYPES DENTAL ROOT SPLINTER FORC ARTIBERIA GIL M SANCHEZ
K851712 04/25/1985 600/203 TO 650/74XN VARIOUS TYPES OF DENT EXTRACTI ARTIBERIA GIL M SANCHEZ
K851711 04/25/1985 600/7 TO 600/288 VARIOUS TYPES OF AMER. PATTERN DE ARTIBERIA GIL M SANCHEZ
K851799 04/25/1985 61-100 TO 61-124 VARIOUS VAGINAL SPECVIA(CUSCO,GRA ARTIBERIA GIL M SANCHEZ
K851713 04/25/1985 680/1 TO 785/2 VARIOUS TYPES & SIZES OF ROOT ELEVA ARTIBERIA GIL M SANCHEZ
K851800 04/25/1985 69-100 TO 69-114 VARIOUS CUTICLE SCISSORS ARTIBERIA I]L M SANCHEZ
K851801 04/25/1985 69-120 TO 69-132 VARIOUS NAIL SCISSORS ARTIBERIA GIL M SANCHEZ
K851802 04/25/1985 69-140 TO 69-160 VARIOUS NAIL CUTTERS ARTIBERIA GIL M SANCHEZ
K851750 04/25/1985 7-103, 7-104, 7-107 SCALPEL HANDLES, #3 #4 #7 ARTIBERIA GIL M SANCHEZ
K851751 04/25/1985 7-120, 7-130,7-140, 7-150,9-151 TO 168, 9-171 TO 1 ARTIBERIA GIL M SANCHEZ
K851803 04/25/1985 71-100 TO 71-130 VARIOUS STERILIZING DRUMS ARTIBERIA GIL M SANCHEZ
K851714 04/25/1985 820/1 TO 820/51 VARIOUS TYPES BONE RONGEURS ARTIBERIA GIL M SANCHEZ
K851715 04/25/1985 830/4 TO 848/7 VARIOUS TYPES CHISELS ARTIBERIA GIL M SANCHEZ
K851716 04/25/1985 865/1 TO 875/3 VARIOUS TYPES OF DENTAL BONE FILES ARTIBERIA GIL M SANCHEZ
K851717 04/25/1985 880/1 TO 890/4 VARIOUS TYPES OF PERIOTEAL ELEVATOR ARTIBERIA GIL M SANCHEZ
K851752 04/25/1985 9-190,9-200,9-210,9-220 AMPUTATION KNIVES, VARIOUS ARTIBERIA GIL M SANCHEZ
K851718 04/25/1985 930/0 TO 950/6 VARIOUS TYPES OF BONE CURETTES ARTIBERIA GIL M SANCHEZ
K851770 04/25/1985 VARIOUS DRESSING TISSUE FROCEPS(GILLIES, JEANS, RA ARTIBERIA GIL M SANCHEZ
K851769 04/25/1985 VARIOUS DRESSING/TISSUE FORCEPS(ENGLISH, THUMB, TR ARTIBERIA GIL M SANCHEZ
K851903 04/30/1985 ASTRA LIGHTWEIGHT STAINLESS STEEL SELF ASPIR/SYRIN ASTRA PHARMACEUTICAL PRODUCTS, INC. BRUCE R MANNING
K851842 04/26/1985 SPQ TEST SYSTEM FOR C-REACTIVE PROTEIN ATLANTIC ANTIBODIES GLENN R IRISH
K851892 04/30/1985 COMPACT 2000 ATRIUM MEDICAL CORP. STEVE HERWECK
K851616 04/18/1985 3.5. MHZ PROBE FOR AUSONICS 150 & 357 REAL TIME CA AUSONICS PTY LTD. WILLIAM C NEALON/AT
K851696 04/24/1985 AUSONICS 150 AUSONICS PTY LTD. WILLIAM C NEALON
K853772 04/22/1985 PRECEPT METHICILLIN AUSTIN BIOLOGICAL LABORATORIES RAY SCHNEIDER
K851660 04/23/1985 DONWAY LIFTING FRAME AUSTRALIAN BIOMEDICAL CORPORATION LTD. COOK
K851467 04/15/1985 HEMOGLOBIN ANALYZER AWARENESS TECHNOLOGY, INC. MARY FREEMAN
K851288 04/01/1985 OXYGEN DELIVERY MEASURING DEVICE BAR-DIX, INC. ROBERT J HERDZINA
K851639 04/19/1985 ANTI-LEU-12 B CELL REAGENT BD BECTON DICKINSON VACUTAINER SYSTEMS PREANALYTIC RUSSELL J ARNSBERGE
K851564 04/16/1985 MODEL 2000 INDULIN INFUSION PUMP BD BECTON DICKINSON VACUTAINER SYSTEMS PREANALYTIC RUSSELL J ARNSBERGE
K851622 04/18/1985 TIMENTIN 85 MCG. SENSI-DISC BD BECTON DICKINSON VACUTAINER SYSTEMS PREANALYTIC RUSSELL J ARNSBERGE
K851537 04/16/1985 LASER RF CONTROL SERUM-QUALITY CONTROL SERUM BEHRING DIAGNOSTICS, INC. JOHN E HUGHES
K851547 04/16/1985 BEHIND THE EAR HEARING AID MODEL BERNAFON T-82 BERNAFON, INC. TED MIKSIEWICZ
K851462 04/12/1985 BFW VOICE GENERATOR BFW LABORATORIES, INC. MICHAEL W WALSH
K851855 04/26/1985 BIO MEDICUS BIO PUMP MODEL BP-90 BIO MEDICUS, INC. JOHN R DALPEE
K851513 04/15/1985 ULTRA-VIOLET BUN REAGENT KIT BIO-ANALYTICS LABORATORIES, INC. ROY
K851514 04/15/1985 ULTRA-VIOLET GLUCOSE REAGENT BIO-ANALYTICS LABORATORIES, INC. ROY
K851636 04/19/1985 DIAMAT GLYCOSLATED HEMOGLOBIN ANALYZER SYSTEM BIO-RAD LYNN C SHANTA
K851852 04/26/1985 GENERAL HOSPITAL INSTRUMENTS BIOLOGICAL & ENVIRONMENTAL CONTROL LABORATORIES NORMAN HUFF
K851851 04/26/1985 STERILE ENDOTRACHEAL BRUSHES BIOLOGICAL & ENVIRONMENTAL CONTROL LABORATORIES NORMAN HUFF
K851390 04/09/1985 STERILE GENERAL HOSPITAL SUPPLIES BIOLOGICAL & ENVIRONMENTAL CONTROL LABORATORIES NORMAN HUFF
K851853 04/26/1985 STERILE GOWNS, MASKS & TOWELS BIOLOGICAL & ENVIRONMENTAL CONTROL LABORATORIES NORMAN HUFF
K851885 04/30/1985 OMIDERM WOUND & BURN DRESSING BIOSYSTEMS ASSOC. ELIE A SHNEOUR
K851335 04/03/1985 COACH TM- THE AEROBIC FITNESS MONITOR BIOTECHNOLOGY, INC. FRANK J BIANCO
K851540 04/16/1985 ESTRADIOL DIRECT RIA KIT BIOTECX LABORATORIES, INC. MOHAN MEHRA
K851672 04/23/1985 NYHUS/NELSON TUBE BISSELL MEDICAL PRODUCTS, INC. THOMAS R MEITES
K851456 04/11/1985 ACCU-CHEK II BOEHRINGER MANNHEIM CORP. SUE SMITH
K851425 04/10/1985 MODEL J25-25 WATT CO2 LASER BRITT CORP., INC. JOHN J MCDONALD
K851307 04/01/1985 INOX DRY HEAT STERILIZER BROADWEST CORP. JACK DONOVAN
K851483 04/15/1985 UROBEI STRESS INCONTINENCE MONITOR BROWNE MEDICAL, INC. MAUREEN WRIGHT
K851328 04/04/1985 KINETIC AUTO TECHNIC K.A.T. TABLE BUCKMAN CO., INC. DAVID W SHCLERF
K851293 04/01/1985 IMPLANTOFIX BURRON MEDICAL PRODUCTS, INC. TRACEY YAKABOW
K851742 04/29/1985 MEDICAL EXAMINATION LIGHTS BURTON MEDICAL PRODUCTS CORP. HILTMAN
K851323 04/04/1985 AMENDMENT WILLIAM HARVEY H-4300 CARDIOPULMONARY SU C.R. BARD, INC. CATHERINE V BEATH
K851398 04/09/1985 BARD PERISTOMAL PASTE C.R. BARD, INC. BOGDAN DZIURZYNSKI
K851897 04/30/1985 CCS MODEL AV-106 IMPLANTABLE A-V DATA LEAD CARDIAC CONTROL SYSTEMS, INC. KENNETH J DURBIN
K851614 04/19/1985 CENTRIMED SYSTEM 1 W/24 VOLT BATTERY POWER SUPPLY CENTRIMED CORP. LLOYD HUBBARD
K851615 04/19/1985 CENTRIMED SYSTEM 1 W/MANUAL PUMP DRIVE CENTRIMED CORP. LLOYD HUBBARD
K851613 04/19/1985 CENTRIMED SYSTEM 1 W/SYSTEM 1 ADAPTER CENTRIMED CORP. LLOYD HUBBARD
K851656 04/23/1985 SHOULDER TRACTION KIT CHATTANOOGA GROUP, INC. MALEY
K851516 04/15/1985 CHERMEL SCALP VEIN SET CHER MEL CORP. CHERYL AMUNDSEN
K851383 04/08/1985 BLISTERFILM TRANSPARENT DRESSING CHESEBROUGH-POND'S U.S.A. CO. MICHAEL HUGHES
K851382 04/08/1985 CHESEBROUGH-POND'S SEQUENTIAL WOUND DRESSING CHESEBROUGH-POND'S U.S.A. CO. MICHAEL HUGHES
K851539 04/16/1985 CHESEBROUGH-PONDS KANGAROO PUMP SET W/EASY-CAP CLO CHESEBROUGH-POND'S U.S.A. CO. MICHAEL HUGHES
K851517 04/15/1985 CIRCA MED SINGLE-CHANNEL-AMBULATORY CARDIAC MONITO CIRCADIAN, INC. ROBERT J SUDOL
K851643 04/19/1985 REMOTE CONTROL MODULE CIRCADIAN, INC. ROBERT A HOFSCHULZ
K851889 04/30/1985 CENTURION-II, MODEL 3103 APNEA/BRADY CARDIA TRACHY CLINICAL DATA, INC. ISRAEL M STEIN
K851289 04/01/1985 COBE GAS FILTER COBE LABORATORIES, INC. HOLLAND HICKEY
K851306 04/01/1985 COBE SYSTEM 3 COBE LABORATORIES, INC. HOLLAND HICKEY
K851487 04/15/1985 CODMAN DISPOSABLE BIPOLAR CARD CODMAN & SHURTLEFF, INC. DONALD A LINCOLN
K851339 04/03/1985 PRECISION HARVEST & INLAY INSTRUMENT SET CONCEPT, INC. PENNY C RASMUSSEN
K851840 04/26/1985 STOMAHESIVE SKIN BARRIER STERILE CONVATEC, A DIVISION OF E.R. SQUIBB & SONS PETER C KALLOS
K851699 04/24/1985 COOK PACEMAKER CORP. 332T BIPOLAR CARDIAC PULSE GE COOK PACEMAKER CORP. RICHARD E SHIREY
K851657 04/23/1985 DEMAND MAGNESIUM COOPER BIOMEDICAL, INC. AMIRAN DANIEL
K851284 04/01/1985 RADIAL IMMUNO-DIFFUSION PLATES IGA, IGD, IGG & IGM COOPER BIOMEDICAL, INC. AMIRAM DANIEL
K851282 04/01/1985 RADIAL IMMUNODIFFUSION PLATES ALPHA-2 MACROGLOBULI COOPER BIOMEDICAL, INC. AMIRAM DANIEL
K851286 04/01/1985 RADIAL IMMUNODIFFUSION PLATES C3 & C4 COOPER BIOMEDICAL, INC. AMIRAM DANIEL
K851285 04/01/1985 RADIAL IMMUNODIFFUSION PLATES CSF IGG & CSF ALBUMI COOPER BIOMEDICAL, INC. AMIRAM DANIEL
K851287 04/01/1985 RADIAL IMMUNODIFFUSION PLATES TRANSFERRIN COOPER BIOMEDICAL, INC. AMIRAM DANIEL
K851283 04/01/1985 RADIAL IMMUNODIFFUSION PLATES-CERULOPLASMIN COOPER BIOMEDICAL, INC. AMIRAM DANIEL
K851419 04/09/1985 MULTICOR GAMMA 402 SERIES PACER CORDIS CORP. JOHN N PAGONES
K851417 04/09/1985 MULTICOR GAMMA MODELS 336/337 CORDIS CORP. JOHN N PAGONES
K851420 04/09/1985 MULTICOR S, MODELS 330A/331A CORDIS CORP. JOHN N PAGONES
K851418 04/09/1985 OMNI-ATRICOR MODEL 308A CORDIS CORP. JOHN N PAGONES
K851416 04/09/1985 STANICOR GAMMA 333B/334A CORDIS CORP. JOHN N PAGONES
K851329 04/04/1985 MAGIC MONOCLONAL ANTIBODY TSH(MAB TSH)RADIOIMMUNOA CORNING MEDICAL & SCIENTIFIC WILLIAM J PIGNATO
K851736 04/25/1985 COULTER CHANNELYZER 256 COULTER ELECTRONICS, INC. & JONE
K851541 04/16/1985 DART IMMUNOGLOBULINS REAGENT SYSTEM COULTER ELECTRONICS, INC. RICHARDSON-JONES
K851864 04/26/1985 SPINAL STABILIZING UNIT COUNTERSTRESS PRODUCTS, INC. GREGORY MELVIN
K851518 04/15/1985 MUELLER HINTON SENSITIVITY PLATE CULTURE KITS, INC. STEPHANIE G PITZER
K851466 04/11/1985 CARNATION - OXYGEN MASK DADSUN CORP., LTD. HENRY CHEN
K851431 04/10/1985 HEMODIALYSIS CONCENTRATE ADDITIVES DANA LABORATORIES RONALD GOODMAN
K851280 04/01/1985 DASS PACK DASS, INC. FRANK F CALO
K851538 04/16/1985 TRIGLYCERIDE(TRINDER) PROCEDURE DATA MEDICAL ASSOCIATES, INC. JERRY A GRAHAM
K851904 04/30/1985 DATA TRAC ANESTHESIOLOGY RECORDER DATASCOPE CORP. ARTHUR FRIEDMAN
K851548 04/16/1985 AHLBERGS KOMBI I & KOMBI II MOBILE TRANSFER CHAIRS DAUN INTERNATIONAL, INC. BRADFORD J PERINO
K851553 04/16/1985 MERIUAARA & ERACARE WHEELCHAIRS DAUN INTERNATIONAL, INC. GLENN Z HERING
K851551 04/16/1985 MERIVAARA ELECTRIC HOSPITAL BED & ACCESSORIES DAUN INTERNATIONAL, INC. GLENN Z HERING
K851550 04/16/1985 MERIVAARA GERIATRIC CHAIR DAUN INTERNATIONAL, INC. GLENN Z HERING
K851552 04/16/1985 MERIVAARA HOSPITAL BED DAUN INTERNATIONAL, INC. GLENN Z HERING
K851452 04/11/1985 VALTRAC PURSESTING DEVICE DAVIS & GECK, INC. PELLETIER
K851679 04/23/1985 OSTOMY BAGS COLOSTOMY DBT MEDICAL LTD. BLACKBURN
K851680 04/23/1985 OSTOMY BAGS ILEOSTOMY DBT MEDICAL LTD. BLACKBURN
K851678 04/23/1985 OSTOMY BAGS URETHEROSTOMY DBT MEDICAL LTD. BLACKBURN
K851682 04/23/1985 SAFESEAL REUSABLE URINAL SYSTEM DBT MEDICAL LTD. BLACKBURN
K851681 04/23/1985 SAFESTRETCH INCONTINENCE SYSTEM DBT MEDICAL LTD. BLACKBURN
K851881 04/29/1985 ORTHOPEADIC CEMENT DELIVERY SYSTEM DENTSPLY INTL. JOHN O SEMMELMAN
K851341 04/03/1985 SYNATOMIC VARIABLE FIT TIBIAL PLATEAU DEPUY, INC. JUDITH DERMODY
K851407 04/09/1985 SURGICAL TOWELS DIACK ROBERT F SMITH
K851635 04/18/1985 DIAGNON HERPES IMMUNOPEROXIDASE TYPING TEST DIAGNON CORP. WILLIAM C GORDON
K851377 04/08/1985 DIAGNON MONOCOMBO VITAM. B12[57CO]/FOLATE[125I] RA DIAGNON CORP. MARIE T PERLSTEIN
K851378 04/08/1985 VIRTRAN VIRAL TRANPORTER DIAGNON CORP. MARIE T PERLSTEIN
K851338 04/03/1985 DOUBLE ANTIBODY ALBUMIN FOR DETECT MICROALBUMINURI DIAGNOSTIC PRODUCTS CORP. SIDNEY A AROESTY
K851860 04/26/1985 DIASONICS DRF-200 ULTRASOUND IMAGING SYSTEM DIASONICS, INC. FLOR O FERNANDEZ
K851446 04/11/1985 UNIVERSAL SERVICE MODULE DIASONICS, INC. FLOR O FERNANDEZ
K851372 04/08/1985 CELLMATICS HERPES SIMPLEX VIRUS DETECT-SYS DIFCO LABORATORIES, INC. WALTER S FISHER
K851481 04/15/1985 SPOTTEST IODINE SOLUTION DOBELL & O'CONNOR DIFCO LABORATORIES, INC. ROBERT
K851814 04/26/1985 WHEELCHAIR CUSHIONS DIGNICARE WILLIAM MCGRAW
K851621 04/18/1985 BOOM ARM DRAEGER MEDICAL, INC. EDWARD T GRIFFITH
K851658 04/23/1985 CAPNOMED DRAEGER MEDICAL, INC. EDWARD T GRIFFITH
K851620 04/18/1985 SPIROMED 2 DRAEGER MEDICAL, INC. EDWARD T GRIFFITH
K851704 04/25/1985 THERMOMED DRAEGER MEDICAL, INC. EDWARD T GRIFFITH
K851393 04/09/1985 DUPONT PREP FOUR-SOLVENT RETROFIT KIT E.I. DUPONT DE NEMOURS & CO., INC. RICHARD M YAUGHT
K851545 04/16/1985 ULTRACLONE ECL-01-800 CELL LINE EARL-CLAY LABORATORIES, INC. ROBERT E LOVINS
K851633 04/18/1985 CC-100 CLOCK/CALANDER MODULE ACCESS. FOR G-2000 EL EATON MEDICAL GROUP PAUL P KLUWE
K851627 04/18/1985 KBX-20 OUTBOARD KEYBOARD ACCESS. FOR G-2000 ELECTR EATON MEDICAL GROUP PAUL P KLUWE
K851623 04/18/1985 MODEL TRC-40 TELEMETRY RECIEVER MODULE EATON MEDICAL GROUP PAUL P KLUWE
K851624 04/18/1985 MODEL TT-185 TELEMETRY TRANSMITTER EATON MEDICAL GROUP PAUL P KLUWE
K851632 04/18/1985 PCX-100 PATIENT INPUT LEADWIRE EATON MEDICAL GROUP PAUL P KLUWE
K851628 04/18/1985 RMG-9 9" REMOTE MONITOR ACCESS. FOR G-2000 ELECTRO EATON MEDICAL GROUP PAUL P KLUWE
K851625 04/18/1985 SCX-10 SINGLE CHANNEL RECORDER ACCESS. FOR G-2000 EATON MEDICAL GROUP PAUL P KLUWE
K851626 04/18/1985 SCX-35 THREE CHANNEL ACCESS. FOR MODULE G-2000 ELE EATON MEDICAL GROUP PAUL P KLUWE
K851629 04/18/1985 TMX-70 TREADMILL EATON MEDICAL GROUP PAUL P KLUWE
K851630 04/18/1985 TMX-80 TREADMILL EATON MEDICAL GROUP PAUL P KLUWE
K851631 04/18/1985 TMX-C1/C2 TRADMILL CONTROLLER ACCESS. EATON MEDICAL GROUP PAUL P KLUWE
K851640 04/11/1985 TIP TOLEDO INCISOR PROTECTOR EDWARD O. GOODWICH EDWARD O GOODWICH
K851731 04/25/1985 ELA MEDICAL PACING LEADS PMC 860 PMCF 860 PBCF860 ELA MEDICAL, INC. TOM S ANDERSON
K851619 04/18/1985 GEN PROFILER SYSTEM ELECTRO-CUCLEONICS, INC. EUGENE H LABREC
K851331 04/04/1985 EMPI MODEL 100, CPM(POWER EXCERISE EQUIPMENT) EMPI GEORGE E MATHIESEN
K851351 04/04/1985 ENTERAL FEEDING PUMP EMPIRE INDUSTRIES, INC. ROLAND J FERLAND
K851527 04/16/1985 UTILIZATION OF ND:YAG LASER FOR TREATMENT RECTAL P ENDO LASE, INC. & HARTSON
K851332 04/04/1985 BLHI LUTEINIZING HORMONE EURO-DIAGNOSTICS BV PAUL M SZUTOWICZ
K851381 04/08/1985 POWER DRIVE WHEELCHAIR-VARIOUS EVEREST & JENNINGS, INC. MOLINELLI
K851733 04/25/1985 DENTAL PORCELAIN-VARIOUS EXCELCO INTL., INC. WARREN HERBSTAMAN
K851879 04/29/1985 HEATED RESPIRATORY HUMIDIFIER FISHER & PAYKEL ALLIED PRODUCTS LTD. DAVID MILBURN
K851450 04/11/1985 FLUORESCENT MICROBEAD ALIGNMENT STANDARDS TM FLOW CYTOMETRY STANDARDS CORP. SCHWARTZ
K851902 04/30/1985 MODEL U-1000 ULTRASONIC SCANNER FUKUDA DENSHI USA, INC. DON ANDRESEN
K851469 04/16/1985 76 ELW BITE CHECKER SILICONE G-C INTL. CORP. DONALD A MCKENZIE
K851468 04/16/1985 76 EMA LINING CEMENT G-C INTL. CORP. DONALD A MCKENZIE
K851318 04/02/1985 GUIBOR MICROELECTROLYSIS UNIT 18 GALVANIC MEDICAL INSTRUMENTS, INC. DAVID
K851428 04/10/1985 TRANDUCER PROTECTOR GALVIN INDUSTRIES, INC. JAY M GALVIN
K851271 04/01/1985 LEGIONELLA CULTURE CONFIRMATIN KIT GEN-PROBE, INC. THOMAS H ADAMS
K851807 04/30/1985 RT2600(115V)(220/240V) #H4008A & H4008AE GENERAL ELECTRIC CO. HOWARD II
K851301 04/01/1985 TARGET CAT#B7850AA & B7850AB & B7850B GENERAL ELECTRIC CO. JAMES M HOWARD
K851673 04/23/1985 RAKA OCH BOSDA PEANGER GENERAL ELECTRIC TRADING CO. HIDEO MARUKI
K851562 04/16/1985 MRC-5 GENCELLS GENUS DIAGNOSTICS PETER J MIONEVENUE
K851563 04/16/1985 RK GENCELLS GENUS DIAGNOSTICS PETER J MIONE
K851561 04/16/1985 WI-38 GENCELLS GENUS DIAGNOSTICS PETER J MIONE
K851385 04/09/1985 THORA-CATH TROCAR-TYPE CHEST DRAINAGE TUBE GESCO INTL., INC. GEORGE E SINKO
K851275 04/01/1985 GIBCO MYCOTECT 189-5670 GIBCO LABORATORIES LIFE TECHNOLOGIES, INC. BRUCE H NICHOLS
K851486 04/15/1985 GOULD DISPOSABLE TRANSDUCER & ACCESSORIES-DTX GOULD, INC. ARCHER S GORDON
K851379 04/08/1985 HEALTHCHECK DIGITAL THERMOMETER MODEL 1 TH-2 HEALTHCHECK CORP. DAVID R BALZER
K851669 04/23/1985 MONITOR IV PLUS HELENA LABORATORIES BARBARA WARREN
K851843 04/26/1985 OSMOCEL 3 HEMATOLOGY MARKETING ASSOC. JAMES LAPICOLA
K851375 04/08/1985 TRI-COUNT HEMATOLOGY MARKETING ASSOC. JAMES LAPICOLA
K851872 04/29/1985 BLENGOLD SPECIAL HERAEUS DENTAL GOLD CORP. ROBERT W BAUER
K851648 04/22/1985 HERACOR SYSTEM HERACOR PLATINUM FOIL, BLENDGOLD NE HERAEUS DENTAL GOLD CORP. ROBERT N BAUER
K851515 04/15/1985 HERAENIUM CA HERAEUS DENTAL GOLD CORP. FRANK H GROSSMAN
K851651 04/22/1985 HGM ENDOCOAGULATOR MODEL 8 HGM, INC. JEROME STENEHJEM
K851350 04/04/1985 ION 2 REAGENT KI HI CHEM, INC. WYNN STOCKING
K851618 04/18/1985 DIASCAN BLOOD GLUCOSE SELF-MONITOR TEST STRIPS HOME DIAGNOSTICS, INC. WILLIAM C AVEN
K851496 04/15/1985 ECG MONITOR MODEL RM102 HONEYWELL, INC. MARTIN KUTIK
K851380 04/08/1985 DISSCAP 110 DIALYZER HOSPAL MEDICAL CORP. DOUGLAS S VLCHEK
K851453 04/11/1985 HOSPAL FISTULA NEEDLE HOSPAL MEDICAL CORP. DOUGLAS L VICHEK
K851565 04/16/1985 HOMEDICA CEMENTED ACETABULAR COMPONENT 6262 HOWMEDICA CORP. JAMES L BARBARITO
K851566 04/16/1985 HOWMEDICA FEMORAL COMPONENT HIP SYS 6259 HOWMEDICA CORP. JAMES L BARBARITO
K851690 04/16/1985 ADJUSTABLE TREATMENT TABLES I-REP, INC. BRADLEY T WILHELM
K851360 04/04/1985 IMED GRAVISET INTRAVASCULAR ADMIN. SET IMED CORP. RALPH H JARBOE
K851611 04/09/1985 IMPACT TURBO CATH IMPACT INSTRUMENTATION, INC. LESLIE H SHERMAN
K851519 04/15/1985 FORTUNA DISPOSABLE SYRINGES IMPOR-TEX, INTL., INC. FRANK M SCHURGAST
K851732 04/25/1985 CARBOCONE IMTECH CORP. PAUL NOBLE
K851740 04/29/1985 EZZIE SYSTEM INDEPENDENT LIVING, INC. LARRY D PETERSON
K851336 04/03/1985 IV/0165 INFUSION SET INFARKEM CORP. VALERIO VALERI
K851525 04/16/1985 PFEIFFER PUMP ING. ERICH PFEIFFER GMBH & CO. KG. PETER PFEIFFER
K851457 04/11/1985 MODEL 483-06 POLYFLEX IMPLANTABLE PACING LEAD INTERMEDICS, INC. LISA S JONES
K851458 04/11/1985 MODEL 493-04 POLYFLEX R IMPLANTABLE PACING LEAD INTERMEDICS, INC. LISA S JONES
K851355 04/04/1985 PLAYTEX SUPER PLUS TAMPONS & DEODORANT TAMPONS INTL. PLAYTEX, INC. IRWIN BUTENSKY
K851356 04/04/1985 PLAYTEX SUPER TAMPONS & SUPER DEODORANT TAMPONS INTL. PLAYTEX, INC. IRWIN BUTENSKY
K851438 04/10/1985 MOBILAIRE II(P2A) OXYGEN CONCENTRATOR INVACARE CORP. OTMAR H SACKERLOTSK
K851434 04/10/1985 MOBILAIRE III P3 OXYGEN CONCENTRATOR INVACARE CORP. OTMAR H SACKERLOTSK
K851439 04/10/1985 MOBILAIRE, PLA-01 OXYGEN CONCENTRATOR INVACARE CORP. OTMAR H SACKERLOTSK
K851436 04/10/1985 NEBULAIRE (IRC 1040) NEBULIZER PUMP INVACARE CORP. OTMAR H SACKERLOTSK
K851435 04/10/1985 PRIME AIRE O, MODEL PA02 2 O OXYGEN CONCENTRATOR INVACARE CORP. OTMAR H SACKERLOTSK
K851437 04/10/1985 PRIME AIRE O2 PLUS 2 INVACARE CORP. OTMAR H SACKERLOTSK
K851808 04/15/1985 ELECTROLYTE ANALYZER IONETICS, INC. KATER
K851820 04/26/1985 SPINAL FLUID CONTROL IRVINE SCIENTIFIC ERNEST S JOHNSON
K851389 04/09/1985 APO B RIA KIT ISO-TEX DIAGNOSTICS EDWARD G EZRAILSON
K851880 04/29/1985 BRIMFIELD SCIEN. INSTRU. DISPOS. STERILE SURG. BLA J-PAC, LLC. ANDREW E JANETOS
K851422 04/10/1985 S-ROM 135 FEMORAL STEM & COLLAR(PART OF S-ROM HIP JOINT MEDICAL PRODUCTS CORP. DOUGLAS G NOILES
K851421 04/10/1985 S-ROM ACETABULAR CUP(PART OF S-ROM 135TM TOTAL HIP JOINT MEDICAL PRODUCTS CORP. DOUGLAS G NOILES
K851444 04/11/1985 KEITH-A.R.V. KARL M. BLOCK CO. KEITH
K851875 04/29/1985 KINNET KINETIC CONCEPTS, INC. ROBERT A NEHRMEYER
K851874 04/29/1985 OR TUBE RESTRAINT KINETIC CONCEPTS, INC. ROBERT A NEHRMEYER
K851689 04/26/1985 GENESYS GAMMA COUNTER LABORATORY TECHNOLOGIES, INC. OESTELIN
K851426 04/10/1985 ACCUCOM CARDIAC OUTPUT MONITOR LAWRENCE MEDICAL SYSTEMS, INC. RODNEY T CARLISLE
K851470 04/15/1985 BIBAG, BIBAND & BIFIX - SINGLE USE URINE COLLECTOR LIC-ORTHION RODNEY R MUNSEY
K851471 04/15/1985 TRIBAG, TRIBAND & TRIFIX-REUSEABLE URINE COLLECTOR LIC-ORTHION RODNEY R MUNSEY
K851905 04/30/1985 LPA-2 REMOTE ALARM LIFE PRODUCTS, INC. DOUGLAS BARNES
K851805 04/30/1985 LPA-3 PRINTER LIFE PRODUCTS, INC. DOUGLAS BARNES
K851337 04/03/1985 502 RESUSCITATORY INHALATOR VALVE LIFE SUPPORT PRODUCTS, INC. DONALD C FABISH
K851675 04/23/1985 THE PERCUTANEOUS NEPHROSTOLITHOTOMY DRAPE LINGEMAN MEDICAL PRODUCTS, INC. PAUL LINGEMAN
K851572 04/17/1985 NOVASPEC VISIBLE SPECTROPHOTOMETER LKB INSTRUMENTS, INC. ED ZIOR
K851662 04/23/1985 LOGOS8821 1-CHANNEL DIRECT-WRITING ELECTROCARDIOGR LOGOS MEDICAL CO., LTD. UCHIDA
K851413 04/09/1985 EPILATOR 8500 LOIS YEE COSMETICS, INC. K YEE
K851557 04/16/1985 ANESTHESIOMETER LUNEAU SA CHAMBORD
K851844 04/26/1985 MOLIFT MADSHUS A/S OYUIND B TORP
K851838 04/26/1985 MANAN CHIBA PTC NEEDLE MANAN MANUFACTURING CO., INC. MANFRED MITTERMEIER
K851831 04/26/1985 MANAN FRANSEENE NEEDLE MANAN MANUFACTURING CO., INC. MANFRED MITTERMEIER
K851835 04/28/1985 MANAN GREENE NEEDLE MANAN MANUFACTURING CO., INC. MANFRED MITTERMEIER
K851834 04/26/1985 MANAN GWI GUIDE WIRE INTRODUCER MANAN MANUFACTURING CO., INC. MANFRED MITTERMEIER
K851839 04/26/1985 MANAN MADAYAG PTC NEEDLE MANAN MANUFACTURING CO., INC. MANFRED MITTERMEIER
K851836 04/28/1985 MANAN MENGHINI NEEDLE MANAN MANUFACTURING CO., INC. MANFRED MITTERMEIER
K851833 04/26/1985 MANAN SELDINGER NEEDLE MANAN MANUFACTURING CO., INC. MANFRED MITTERMEIER
K851837 04/26/1985 MANAN WESTCOTT NEEDLE MANAN MANUFACTURING CO., INC. MANFRED MITTERMEIER
K851701 04/24/1985 MANAN ZAVALA NEEDLE MANAN MANUFACTURING CO., INC. MANFRED MITTERMEIER
K851832 04/26/1985 NAMAN POTTS COURNAND NEEDLE MANAN MANUFACTURING CO., INC. MANFRED MITTERMEIER
K851290 04/01/1985 LOBESAFE PLAIN CONDOM DOZEN CONDOMS/BOX,PC-10 MANEXIM MULTICORP, LTD. LAVIAN
K851292 04/01/1985 LOVESAFE DOTTY CONDOM ONE DZ. CODOMS/BOX, DC-20 MANEXIM MULTICORP, LTD. LAVIAN
K851291 04/01/1985 LOVESAFE PLAIN CONDOM 1/4 DZ. CONDOMS/BOX PC-30 MANEXIM MULTICORP, LTD. LAVIAN
K851848 04/26/1985 PERCUTANEOUS TRANSLUMINAL BLOOD DILATION CATHETER MANSFIELD SCIENTIFIC, INC. BRUCE BEAUCHEMIN
K851399 04/09/1985 BAC-T-SCREEN MARION LABORATORIES, INC. WILLIAM H GUINTY
K851497 04/15/1985 MARLIN CONTACT LENS CASE MARLIN INDUSTRIES JEROME HIRSCH
K851463 04/15/1985 OLBERT CATHETER SYS FOR URETERAL DILATION MEADOX SURGIMED, INC. JAMES HARTIGAN
K851647 04/22/1985 OLBERT CATHETER SYSTEM FOR BILIARY TRACT DILATATIO MEADOX SURGIMED, INC. SCOTT J MINDREDO
K851896 04/30/1985 DOUBLE ACTION PIN CUTTER MED-TOOL, INC. JOHN M MAYERIK
K851659 04/23/1985 SKULL MOUNTED STEREOTACTIC SURGICAL DEVICE MEDCO PRODUCTS, CO., INC. MARK CAROL
K851441 04/10/1985 TACTICON 1600 MEDECON EARLE L CANTY
K851489 04/15/1985 ARTERIAL-VENOUS COMPRESSION DRESSING MEDI-PLAST INTL., INC. MICHAEL BLUM
K851415 04/09/1985 BODY ANALYSIS SYSTEM (DEEMED SE 87/09/18) MEDI-SPORT TESTING, INC. JAN GUSTAFSON
K851402 04/09/1985 LEVEEN INFLATOR DISPOSABLE INFLATION SYRINGE MEDI-TECH, INC. ALBERT P SEPRINSKI
K851670 04/23/1985 CHEM TRAK TRI-POINT LIQUID BILIRUBIN CALIBRATOR,I/ MEDICAL ANALYSIS SYSTEMS, INC. DONNA ANDERSON
K851849 04/26/1985 CREATINE LIQUID STABLE REAGENT SET MEDICAL ANALYSIS SYSTEMS, INC. DONNA L ANDERSON
K851877 04/29/1985 TOTAL PROTEIN LIQUID STABLE REAGENT SET MEDICAL ANALYSIS SYSTEMS, INC. DONNA L ANDERSON
K851277 04/01/1985 MICROSPIRO-SDS MEDICAL EQUIPMENT DESIGNS, INC. MICHAEL BERG
K851610 04/15/1985 COMBINED MVS SYSTEMS MEDICAL INSTRUMENT DEVELOPMENT LABORATORIES, INC. GREG BESSER
K851370 04/05/1985 INTERFACE TRANSFUSION BLOOD FILTER #35 MEDICAL, INC. ADEL A MIKHAIL
K851349 04/04/1985 LERE NAIL & PLATE COMBIN. ONE PIECE FORGED MEDICALEX ALDO LEVY
K851666 04/23/1985 MEDI-COMP NEONATAL OXYGEN HOOD MEDICOMP, INC. DUNCAN C JOHNSON
K851358 04/04/1985 MODEL BION 2/TYPE 90 ROOM IONIZER MEDICOR USA LTD. GEZA PATAKY
K851303 04/01/1985 COMFORT-EASE ELECTRODE MEDTRONIC VASCULAR ROBERT C FLINK
K851890 04/30/1985 MEDTRONIC 5064 MEDTRONIC VASCULAR EDWARD W NUMAINVILL
K851870 04/29/1985 MENTOR UNIVERSAL URETERAL STENT SET MENTOR CORP. GREGORY L JOHNSON
K851397 04/09/1985 SONICATOR 705 MODEL ME 705 METTLER ELECTRONICS CORP. FLEMING
K851735 04/25/1985 SYS STIM 206 MODEL ME206 METTLER ELECTRONICS CORP. ROB FLEMING
K851343 04/04/1985 BROM CRESOL PURPLE STARCH MICRO MEDIA LABORATORIES PETER G MARTIN
K851348 04/04/1985 COBA AGAR MICRO MEDIA LABORATORIES PETER G MARTIN
K851347 04/04/1985 KANAMYCIN-VANCOMYCIN-LAKED BLOOD AGAR MICRO MEDIA LABORATORIES PETER G MARTIN
K851344 04/04/1985 OXIDATIVE FORMENTIVE MEDIUM MICRO MEDIA LABORATORIES PETER G MARTIN
K851346 04/04/1985 PHENYLALANINE AGAR MICRO MEDIA LABORATORIES PETER G MARTIN
K851345 04/04/1985 PURPLE BROTH MICRO MEDIA LABORATORIES PETER G MARTIN
K851443 04/11/1985 MICRO-AIRE OSCILLATING SAW, 1740-000 & WIRE DRIVER MICRO-AIRE SURGICAL INSTRUMENTS, INC. GERALD BROOKS
K851325 04/04/1985 MICROCOR ECG MONITOR MICROCOR, INC. PERRY L LANE
K851652 04/22/1985 PAPILLOTOME MICROVASIVE SAMUEL D WADE
K851703 04/24/1985 GLUCOSTIX REAGENT STRIPS & GLUCOMETER REFLECT-PHOT MILES LABORATORIES, INC. JOHN H ENGLEMANN
K851866 04/29/1985 DAHLBERG MODEL DB BEHIND-THE-EAR HEARING AID MIRACLE-EAR/DAHLBERG, INC. JANE E HIXSON
K851869 04/29/1985 DAHLBERG MODEL DC BEHIND-THE-EAR HEARING AID MIRACLE-EAR/DAHLBERG, INC. JANE E HIXSON
K851867 04/29/1985 DAHLBERG MODEL DD BEHING-THE-EAR HEARING AID MIRACLE-EAR/DAHLBERG, INC. JANE E HIXSON
K851868 04/29/1985 DAHLBERT MODEL DE BEHING-THE-EAR HEARING AID MIRACLE-EAR/DAHLBERG, INC. JANE E HIXSON
K851810 04/26/1985 MODEL DA BEHIND-THE-EAR HEARING AID MIRACLE-EAR/DAHLBERG, INC. TAMI LONEY
K851369 04/05/1985 ANTINUCLEAR ANTIBODY TEST KIT MODERN DIAGNOSTICS, INC. VIRGINIA LIPP
K851655 04/22/1985 TEACHER TM MONARGUE INTL. JOHN A ANDROSS
K851702 04/24/1985 MORTARA INSTRUMENT MODEL EL-1 MORTARA INSTRUMENT, INC. TIMOTHY C MICKELSON
K851612 04/18/1985 DERMA PREP MOWBRAY CO., INC. JERRY S PIETERS
K851646 04/19/1985 VIBRECTOR MULTICEPT, APS. JAKOB WAGNER
K851873 04/29/1985 FORTEC MI-305 NAM TAI LTD. WILSON WANG
K851506 04/15/1985 SERUM TRANSPORT VIALS, T25/SC, TZ10/SC NCS DIAGNOSTICS, INC. ED RAYNER
K851504 04/15/1985 VDRL CARBON ANTIGEN TEST S900500, S900250 & S90010 NCS DIAGNOSTICS, INC. ED RAYNER
K851744 04/29/1985 EQUITEST NEUROCOM INTERNATIONAL, INC. LEWIS M NASHNER
K851300 04/01/1985 NEUROPACK 8, MEE-4108 NIHON KOHDEN AMERICA, INC. PAUL M PARASHAK
K851508 04/15/1985 NIKON/JOYCE LOCK MAGICAN 2 CHROMOSOME SYS NIKON INC. ROBERT CHU
K851445 04/11/1985 COLOR OVULATION TEST NMS PHARMACEUTICALS, INC. PERRY G RUCKER
K851299 04/01/1985 CORRECT FLO NORTON PERFORMANCE PLASTICS CORP. ROGER MOGILL
K851845 04/26/1985 NUMED TEMP. STYLET PACING PAROBE 1318694 NUMED, INC. ALLEN J TOWER
K851532 04/16/1985 SUNTANNING EQUIPMENT OAKPORT INTL., INC. HARRY J EIJCKELHOF
K851449 04/11/1985 OHMEDA 5000 INFANT WARMER SYSTEM OHMEDA MEDICAL RAYMOND T RIDDLE
K851509 04/15/1985 OHMEDA 7000 ELECTRONIC ANESTHESIA VENTILATOR OHMEDA MEDICAL RAYMOND T RIDDLE
K851274 04/01/1985 OHMEDA MODEL 0001/0003 RECORDER OHMEDA MEDICAL RAYMOND T RIDDLE
K851654 04/22/1985 OMNIMED CLAMP OMNI INTL., INC. RAMAN KADEVARI
K851734 04/25/1985 OMNIMED SUPERIOR TRANSDUCER PROTECTOR OMNI INTL., INC. RAMAN KADEVARI
K851707 04/25/1985 OMRON DIGITAL BP MONITOR HEM-400C OMRON TATEISI ELECTRONICS CO. HIROYUKI HISA
K851410 04/09/1985 O.M.S. UV-COLOURS OPTICAL MOULDING SYSTEMS RYSER
K851822 04/26/1985 BETA SCAN TRENDS METER ORANGE MEDICAL INSTRUMENTS, INC. JAMES B BURT
K851641 04/19/1985 THROMBOSIL SILICA ACTIVATED PTT REAGENT THROMBOXIL ORTHO DIAGNOSTIC SYSTEMS, INC. PATRICIA BONNESS
K851367 04/05/1985 HA-1000 & HA-500 HYDROXYLAPATITE-MODIFICATION ORTHOMATRIX, INC. THOMAS E CANE
K851404 04/09/1985 OMNIFIT THREADED ACETABULAR COMPONENTS 2005 SERIES OSTEONICS CORP. DENNIS H CRANE
K851429 04/10/1985 EARETTE HEARING AID(BEHIND THE EAR OTICON E35F OTICON CORP. PREBEN BRUNVED
K851430 04/10/1985 EARETTE HEARING AID(BEHIND THE EAR OTICON E37F OTICON CORP. PREBEN BRUNVED
K851665 04/22/1985 PACESETTER SYSTEMS, MODEL 458 ADAPTER SLEEVE PACESETTER SYSTEMS NESTOR KUSNIERZ
K851861 04/26/1985 PROGRAMALITH III MODEL 249 PULSE GENERATOR PACESETTER SYSTEMS NESTOR KUSNIERZ
K851322 04/02/1985 PERSONAL C3 3-CHANNEL ELECTROCARDIOGRAPH PAREXEL INTL. CORP. JULIAN P KAYE
K851327 04/04/1985 DESERET ARTERIAL CATHETER PARKE-DAVIS CO. EDWARD F CLEARY
K851895 04/30/1985 POLYGEL ULTRASOUND GEL PARKER LABORATORIES, INC. MARTIN BUCHALTER
K851528 04/18/1985 PASCO GRAM NEGATIVE IDENTIFICATION SYSTEM PASCO LABORATORIES, INC. LINDA K DILLON
K851698 04/24/1985 ANNE MARIE PERRIS SUNGLASSES AND FRAMES PERLINEA CO. MARIE PERRIS
K851674 04/23/1985 PHAKOSYSTEMS MODEL CES 4100 PHAKOSYSTEMS, INC. KEITH L CARTER
K851650 04/22/1985 PHADEBACT MONOCLONAL GC OMNI TEST PHARMACIA, INC. ALBERT P MAYO
K851273 04/01/1985 PHADEBAS RAST PHADEZYM RAST ALLERTUBES PHARMACIA, INC. ALBERT P MAYO
K851533 04/16/1985 PHILIPS UV-A SDARIUM TYPE HP 3148(CFR 21 SUNLAMP PHILIPS INT'L B.V. EMMELKAMP
K851535 04/16/1985 PHILIPS UV-A SOLARIUM TYPE HP 3140 PHILIPS INT'L B.V. EMMELKAMP
K851536 04/16/1985 PHILIPS UV-A SOLARIUM TYPE HP 3141 PHILIPS INT'L B.V. EMMELKAMP
K851534 04/16/1985 PHILIPS UV-A SOLARIUM TYPE HP 3150 PHILIPS INT'L B.V. EMMELKAMP
K851649 04/22/1985 APO A-I IMMUNOASSAY TEST SET FOR APOLIPOPROTEIN A1 PHOTEC DIAGNOSTICS, INC. JAMES F MONGIARDO
K851432 04/10/1985 HEMOGLOBIN POINTE SCIENTIFIC, INC. JANUSZ M SZYSZKO
K851482 04/15/1985 TOURNIQUET POLYMER TECHNOLOGY CORP. PLEKENPO L
K851364 04/04/1985 FRANZEN NEEDLE GUIDE FOR TRANSRECTAL PROSTATE BIOP PRECISION DYNAMICS CORP. DAVID L KING
K851576 04/16/1985 BIGGY AGAR NICKERSONS MEDIUM PREFERRED MICRO-MEDIA ROBERT SCOTT
K851578 04/16/1985 BILE ESCULIN AGAR PREFERRED MICRO-MEDIA ROBERT SCOTT
K851577 04/16/1985 BILE ESCULIN AZIDE AGAR PREFERRED MICRO-MEDIA ROBERT SCOTT
K851588 04/16/1985 CHOCOLATE AGAR PREFERRED MICRO-MEDIA ROBERT SCOTT
K851579 04/16/1985 CHOCOLATE MUELLER HINTON AGAR PREFERRED MICRO-MEDIA ROBERT SCOTT
K851580 04/16/1985 COLUMBIZ CNA AGAR W/5% SHEEP BLOOD PREFERRED MICRO-MEDIA ROBERT SCOTT
K851581 04/16/1985 DERMATOPHYTE TEST MEDIUM PREFERRED MICRO-MEDIA ROBERT SCOTT
K851582 04/16/1985 GN BROTH PREFERRED MICRO-MEDIA ROBERT SCOTT
K851583 04/16/1985 HEKTOEN ENTERIC AGAR PREFERRED MICRO-MEDIA ROBERT SCOTT
K851584 04/16/1985 LEVINE EMB AGAR PREFERRED MICRO-MEDIA ROBERT SCOTT
K851586 04/16/1985 MACCONKEY AGAR PREFERRED MICRO-MEDIA ROBERT SCOTT
K851585 04/16/1985 MANNITOL SALT AGAR PREFERRED MICRO-MEDIA ROBERT SCOTT
K851589 04/16/1985 MUELLER HINTON AGAR & MUELLER HINTON AGAR W/5% SHE PREFERRED MICRO-MEDIA ROBERT SCOTT
K851590 04/16/1985 MYCOLOGY AGAR W/ANTIBOTICS PREFERRED MICRO-MEDIA ROBERT SCOTT
K851591 04/16/1985 PHENYLETHYL ALCOHOL AGAR W/5%SHEEP BLOOD PREFERRED MICRO-MEDIA ROBERT SCOTT
K851592 04/16/1985 SABOURAUD DEXTROSE AGAR PREFERRED MICRO-MEDIA ROBERT SCOTT
K851593 04/16/1985 SELECTIVE STREPTOCOCCUS AGAR PREFERRED MICRO-MEDIA ROBERT SCOTT
K851594 04/16/1985 SF BROTH PREFERRED MICRO-MEDIA ROBERT SCOTT
K851596 04/16/1985 SIM MEDIUM PREFERRED MICRO-MEDIA ROBERT SCOTT
K851595 04/16/1985 SIMMONS CITRATE AGAR PREFERRED MICRO-MEDIA ROBERT SCOTT
K851587 04/16/1985 THAYER MARTIN AGAR & MODIFIED THAYER AGAR PREFERRED MICRO-MEDIA ROBERT SCOTT
K851598 04/16/1985 THIOGLYCOLLATE WITHOUT INDICATOR PREFERRED MICRO-MEDIA ROBERT SCOTT
K851599 04/16/1985 TRICHOMONAS BROTH (KUPFORBERG PREFERRED MICRO-MEDIA ROBERT SCOTT
K851597 04/16/1985 TRIPLE SUGAR IRON AGAR PREFERRED MICRO-MEDIA ROBERT SCOTT
K851600 04/16/1985 TRYPTIC SOY AGAR W/5% SHEEP BLOOD PREFERRED MICRO-MEDIA ROBERT SCOTT
K851601 04/16/1985 TRYPTIC SOY BROTH PREFERRED MICRO-MEDIA ROBERT SCOTT
K851602 04/16/1985 UREA AGAR PREFERRED MICRO-MEDIA ROBERT SCOTT
K851603 04/16/1985 XYLOSE LYSINE DESOXYCHOLATE AGAR PREFERRED MICRO-MEDIA ROBERT SCOTT
K851804 04/30/1985 BIO-CHALLENGE TEST PAK PROPPER MFG. CO., INC. JOHN DYCKMAN
K851464 04/11/1985 PULSE MED CUSTOM PKG. PROC. TRAYS OPERATING ROOMS PULSE MED, INC. CLIFFORD E KNUCKLES
K851366 04/05/1985 COMPANION 2800 VOLUME VENTILATOR PURITAN BENNETT CORP. HARTLEY C ERICSON
K851384 04/09/1985 MEDICAL/SURGICAL SUCTION SYSTEM PURITAN BENNETT CORP. HARTELY C ERICSON
K851302 04/01/1985 QUINTON Q-TEL 418T & 419T REMOTE CARDIAC MONITOR QUINTON, INC. DAN ROPER
K851644 04/19/1985 SPECTRUM 150 DT RAYTHEON MEDICAL SYSTEMS JEFFREY N MOELLER
K851396 04/09/1985 SANDER'S MASKCPAP BY RESPIRONICS RESPIRONICS, INC. EUGENE N SCARBERRY
K851739 04/29/1985 DUNN VESSEL OCCLUDER-STERILE RICHARD J. TURNER ASSOC. RICHARD J TURNER
K851891 04/30/1985 TERRAN ONE BIOMECHANICAL ANALYSIS SYSTEMS RICHARD SCOTT ELLIOTT SCOTT ELLIOT
K851304 04/01/1985 NON/GEL ADHESIVE DISPERSIVE ELECTRODE 3427,33-4270 RICHARDS MEDICAL CO., INC. JIM LENICK
K851305 04/01/1985 NON/GEL FULLY ADHESIVE DISPERSIVE ELECTRODE 3428, RICHARDS MEDICAL CO., INC. JIM LENICK
K851319 04/02/1985 DIALYSIS CONCENTRATE RIES BIOLOGICALS GIL W MCGUFF
K851362 04/04/1985 STANDARD SOLUTION OF CONDUCTIVITY & MEASUREMENT OF RNA MEDICAL CORP. ADOLPH E D'AMICO
K851485 04/15/1985 DEFI 502 ROBERT BOSCH CORP. ANDREW SCHAEFFER
K851937 04/15/1985 SONOMED 4 ROBERT BOSCH CORP. ANDREW SCHEEFFER
K851876 04/29/1985 PREFER INCONTINENCE AID ROCKY MOUNTAIN MEDICAL CORP. RICHARD J ROSENBAUM
K851819 04/26/1985 ROKONICS SENTRY MODEL 8500 ROKONICS, INC. JOHN SOROKO
K851556 04/16/1985 OP-FACE MASK(MASQUE DE CHIRUGIE) ROSEBURG SA CHAMBORD
K851555 04/16/1985 OPTHALMIC BAR PRISM ROSEBURG SA CHAMBORD
K851554 04/16/1985 OVERSHOES (SURCHAUSSURES ROSEBURG SA CHAMBORD
K851560 04/16/1985 PORTASPIR II ROSEBURG SA CHAMBORD
K851558 04/16/1985 SURGICAL CAP CALOT ROSEBURG SA CHAMBORD
K851559 04/16/1985 TURQUOISE ROSEBURG SA CHAMORD
K852011 04/26/1985 NYLAMID MESH PAD FULL & HALF S. JACKSON, INC. JACKSON
K851394 04/09/1985 SANDARE IRON PROCEDURE SANDARE CHEMICAL CO., INC. JAMES L SANDERS
K851395 04/09/1985 SANDARE IRON-BINDING CAPACITY PROCEDURE SANDARE CHEMICAL CO., INC. JAMES L SANDERS
K851818 04/26/1985 SARTORIUS MINI SART FH 16592 SARTORIUS FILTERS, INC. STEVEN CATES
K851817 04/26/1985 SARTORIUS MINI-SART FH 16555 SARTORIUS FILTERS, INC. STEVEN CATES
K851816 04/26/1985 SARTORIUS MINISART FH 16534 SARTORIUS FILTERS, INC. STEVEN CATES
K851825 04/26/1985 SCANLAN TUNNELER, SHEATH & TIP SCANLAN INTL., INC. TIMOTHY M SCANLAN
K851320 04/02/1985 SDI PREPAX DILUKIT M. SCIENTIFIC DISTRIBUTORS, INC. MICHAEL J BOYLE
K851900 04/30/1985 SEA MED DDD PACING SYSTEM ANALYZER SEAMED CORP. BENGT SVENSSON
K851522 04/15/1985 DIAGNOSTIC ECG DISPOSABLE ELECTRODE SENTRY MEDICAL PRODUCTS, INC. GARY FINCH
K851520 04/15/1985 CK/LD ISOENZYMES CONTROLS(HUMAN) SERAGEN DIAGNOSTICS, INC. MICHAEL J SULLIVAN
K851521 04/15/1985 LD-1(IMMUNO) SEPARATION SET SERAGEN DIAGNOSTICS, INC. MICHAEL J SULLIVAN
K851663 04/23/1985 QUICK-COUNT HEMATOLOGY CONTROLS SERAGEN DIAGNOSTICS, INC. MICHAEL J SULLVAN
K851409 04/09/1985 UNILOC TOTAL HIP PROSTHESIS SERRANO INTL. JAY H GELLER
K851664 04/23/1985 MODEL MB-309H, SHARP DIGITAL BLOOD PRESSURE MONITO SHARP ELECTRONICS CORP. GLEN WEINBERG
K851671 04/23/1985 GASTROINTESTINAL TUBE SHERIDAN CATHETER CORP. JOHN A STEEN
K851856 04/26/1985 TRACHEAL/BRONCHIAL DIFFERENTIAL VENTILATION TUBE SHERIDAN CATHETER CORP. JOHN S STEEN
K851857 04/26/1985 UROLOGICAL CATHETER & ACCESSORIES FOLEY CATHETER SHERIDAN CATHETER CORP. JOHN A STEEN
K851400 04/09/1985 SIRECUST 420 PATIENT DIALOG MONITOR SIEMENS MEDICAL SOLUTIONS USA, INC. HARRY K SCHWILL
K851637 04/19/1985 SIRECUST 425, RESPECTIVELY SIRECUST 430 SIEMENS MEDICAL SOLUTIONS USA, INC. RICHARD GIBSON
K851738 04/25/1985 MCDB-105 MED. M6395, W/L-GLUTAMINE, 25M M HERPES & SIGMA JAN BAKER
K851737 04/25/1985 MCDB-110 MED. M6520 W/L-GLUTAMINE-25M M HERPES & SIGMA JAN BAKER
K851862 04/26/1985 MCDB 302 MEDIUM, M2021 SIGMA CELL CULTURE REAGENTS JAN BAKER
K851863 04/26/1985 NCTC-135 MEDIUM N3262 SIGMA CELL CULTURE REAGENTS JAN BAKER
K851604 04/16/1985 CRCM-30 MEDIUM PRODUCT NO. C5030 SIGMA CHEMICAL CO. JAN BAKER
K851606 04/16/1985 D-PBS, PRODUCTS NO. D5652 SIGMA CHEMICAL CO. JAN BAKER
K851607 04/16/1985 MCDB 151 MEDIUM, PRODUCT NO. M6645 SIGMA CHEMICAL CO. JAN BAKER
K851609 04/16/1985 SFRE 199-2 MEDIUM, PRODUCTS NO. S2138 SIGMA CHEMICAL CO. JAN BAKER
K851608 04/16/1985 SFRE199-1 MEDIUM PRODUCT NO. S 2013 SIGMA CHEMICAL CO. JAN BAKER
K851605 04/16/1985 SWIN'S S-77 MEDIUM, PRODUCTS S2513 SIGMA CHEMICAL CO. JAN BAKER
K851530 04/16/1985 4003 NON CONDUCTIVE ANESTHESIA CIRCUIT W/BREATGAS SIGMA MEDICAL, INC.
K851529 04/16/1985 4010 NON CONDUCTIVE VENTILATOR CIRCUIT W/BACTERIAL SIGMA MEDICAL, INC.
K851531 04/16/1985 4013 NON CONDUCTIVE ANESTH. CIRCUIT W/BREATH-BAG SIGMA MEDICAL, INC.
K851829 04/26/1985 SKYTRON ELITE 3100 SURGICAL TABLE SKYTRON, DIV. THE KMW GROUP, INC. LARRY J PURCEY
K851830 04/26/1985 SKYTRON ELITE 7000 MICRO-SURGERY TABLE SKYTRON, DIV. THE KMW GROUP, INC. LARRY J PURCEY
K851365 04/05/1985 SORIN BIOMEDICA ORION 30/A CARDIAC STIMULATOR & PM SORIN BIOMEDICA, FIAT, USA, INC. JEANNE-MARIE VARGA
K851276 04/01/1985 ACTION PAC SOUTH MOUNTAIN MEDICAL DENNIS E FARRELL
K851661 04/23/1985 SOLEX & SAXON INT'L OPTICAL OF HONG KONG SOUTH WEST INTL., INC. HACKMEYER BURN
K851524 04/16/1985 SEPTOJECT STERILE DISPOSABLE INJECTION NEEDLE SPECIALITES SEPTODONT KINTNER P
K851388 04/09/1985 SEPTOSIL SILICONE FOR PRECISION IMPRESSION SPECIALITES SEPTODONT PETER S REICHERTZ
K851278 04/01/1985 ACETAZYME, STANBIO ACETAMINOPHEN PROC/TEST 0870 STANBIO LABORATORY HOWARD C LEIFHEIT
K851841 04/26/1985 IMAX PERIOTIPS STRAM DENTAL, INC. AMRITA CHARI
K851414 04/09/1985 SEGMENTAL SPINAL RODS STUART ABRAHAM GLASSER
K851440 04/10/1985 RDIOGRAPHIC WALL HOLDER OR FILM RECEPTOR SUMMIT INDUSTRIES, INC. JIM K WALSH
K851511 04/15/1985 ACCURATECARE I & ACCURATECARE II SUNNEX, INC. JACK CHEN
K851828 04/26/1985 IRRADIATOR FOR BIOLOGICAL MATERIALS IBL-437-C SYNCOR INTL. CORP. ELEANOR V CHIU
K851741 04/29/1985 ACCULEVEL THEOPHYLLINE TEST(MODIFICATION) SYVA CO. JOAN KURJIAN
K851568 04/16/1985 EMIT 700 BENZODIAZEPINE ASSAY SYVA CO. JOAN KURJIAN
K851373 04/08/1985 EMIT 700 CANNABINOID 20 ASSAY SYVA CO. JOAN KURJIAN
K851859 04/26/1985 FACIAL/UPPER BODY UNIT TANNHUT JANICE SHIVETTS
K851858 04/26/1985 FOLD AWAY HUT TANNHUT JANICE SHIVETTS
K851308 04/01/1985 ANALYTES ALBUMIN, TOTAL BILIRUBIN, AST, ALT GEN2 S TECHNICON INSTRUMENTS CORP. LEONARD A DWARCIA
K851461 04/11/1985 IMPLANTABLE ELECTRODE ADAPTOR ASSEMBLE TELECTRONICS, INC. WILLIAM C NEALON
K851296 04/01/1985 IMPLANTABLE ELECTRODE LEAD 030-269 USING POLYURETH TELECTRONICS, INC. WILLIAM C NEALON
K851295 04/01/1985 IMPLANTABLE ELECTRODE LEAD 030-271 USING POLYURETH TELECTRONICS, INC. WILLIAM C NEALON
K851294 04/01/1985 IMPLANTABLE ELECTRODE LEAD 030-272 USING POLYURETH TELECTRONICS, INC. WILLIAM C NEALON
K851297 04/01/1985 IMPLANTABLE ELECTRODE LEAD, 030-270 USING POLYURET TELECTRONICS, INC. WILLIAM C NEALON
K851460 04/11/1985 NEW CONNECTOR & COVER FOR TELECTRONICS 8MM UNIPOLA TELECTRONICS, INC. WILLIAM C NEALON
K851575 04/17/1985 DR. BRUNO LNAGE MINI PHOTOMETER TEXAS MEDICAL PRODUCTS, INC. JOYCE HEINEICH
K851695 04/22/1985 ULTRA-NEB 100 ULTRASONIC NEBULIZER THE DEVILBISS CO. JAMES C STANGE
K851882 04/29/1985 BANE CURVED RONGEUR, 7" SS TYPE 420 THE HUXLEY INSTRUMENT CORP. REBECCA J SHAHZADA
K851883 04/29/1985 SIMPSON OBSTETRICAL FORCEPS-SS TYPE 410 OR 420 THE HUXLEY INSTRUMENT CORP. REBECCA J SHAHZADA
K851495 04/15/1985 THORATEC MULTILUMEN CENTRAL VENOUS CATH-TRAY THORATEC LABORATORIES CORP. KARL HALL
K851526 04/15/1985 CONVEX PROBE, PVE-393M TOSHIBA MEDICAL SYSTEMS WYATT CANNADY
K851686 04/23/1985 DIGITAL GAMMA CAMERA GCA 501S TOSHIBA MEDICAL SYSTEMS WYATT CANNADY
K851685 04/23/1985 DIGITAL GAMMA CAMERA GCA 601 E TOSHIBA MEDICAL SYSTEMS WYATT CANNADY
K851687 04/23/1985 JUMBO DIGITAL GAMMACAMERA GCA-90B TOSHIBA MEDICAL SYSTEMS WYATT CANNADY
K851392 04/09/1985 TRACOR 200 MICROPROCESSOR AUDIOMETER/TRACOR RA 200 TRACOR INSTRUMENTS, INC. JACK C FOREMAN
K851523 04/16/1985 DISPOSABLE PLASTIC SYRINGES TRANSCOJECT GMBH & CO. KG O KOHLER
K851405 04/09/1985 TRIMEDYNE MEDICAL ARGON LASER SYSTEM MODEL 700 TRIMEDYNE, INC. HANY HUSSEIN
K851321 04/02/1985 ATAC 2000 CHEMISTRY ANALYZER TURPEN LABORATORY SYSTEMS, INC. JON D TURPEN
K851809 04/26/1985 VACUUM COMPRESSION INJECTOR UCI CORP. JOHN B DUBECK
K851901 04/30/1985 750 SD ULTRASOUND SCANNER(MODIFICATION) ULTRASONIX, INC. BRIAN SINDER
K851386 04/09/1985 UNITEK DISPOSABLE IMPRESSION SYRINGE UNITEK CORP. LAWRENCE STEVENS
K851684 04/23/1985 UROTEC/FRANKLIN SOFT SIMPLASTIC CATHETER UROTEC SYSTEMS CORP. SUNIL WADHWANI
K851706 04/25/1985 UNIVERSAL COMPUTER INTERFACE SYSTEM VACUMETRICS, INC. RONALD A THOMSON
K851653 04/22/1985 VARIAN/XIMATRON 5 CARBON-FIBER COUCH TOP VARIAN ASSOC., INC. MILTON D SIEGEL
K851403 04/09/1985 VENTREZYME ALLERGEN DATA REDUCTION SYSTEM VENTREX LABORATORIES, INC. JAMES W CHAMPLIN
K851812 04/26/1985 DIGITAL SUBTRACTION ANTIOGRAPHY PHANTOM 76-700/711 VICTOREEN, INC. GLASSER
K851811 04/26/1985 SLIT CAMERA MODEL 07-624 VICTOREEN, INC. GLASSER
K851813 04/26/1985 THERPAC-RADIATION THERAPY TREATMENT PLANNING SYSTE VICTOREEN, INC. GLASSER
K851668 04/23/1985 PROSTHESIS OR SURGICAL PADS VIRGINIA HALL, INC. JANET L DEGRANDIS
K851821 04/26/1985 VI-FLOW PUMP WITH VI-SET VITAL CANADA, INC. LE MARE
K851617 04/18/1985 TODAY PERSONAL LUBRICANT VLI CORP. PETER S REICHERTZ
K851451 04/11/1985 STAT GAS MODULE VULCAN LABORATORIES, INC. JOE EMRICO
K851479 04/15/1985 VYGON BALLOON FOR IDENTIFICATION OF EPIDURAL 193 VYGON CORP. TONY J RIVERS
K851475 04/15/1985 VYGON CANNULA FOR SURGICAL SUCTION YAN KAUER 574/5 VYGON CORP. TONY J RIVERS
K851473 04/15/1985 VYGON DELEE SUCTION CATHETER CODE NO 533 VYGON CORP. TONY J RIVERS
K851477 04/15/1985 VYGON EXCHANGE TRANSFUSION TRAY 275.00 VYGON CORP. TONY J RIVERS
K851480 04/15/1985 VYGON GUEDEL AIRWAY 511 VYGON BERMANN/OROPHAR AIRW VYGON CORP. TONY J RIVERS
K851478 04/15/1985 VYGON SPINAL ANESTHESIA NEEDLE W/INTRODUCER 183 VYGON CORP. TONY J RIVERS
K851474 04/15/1985 VYGON SPINAL ANESTHESIA TRAY CODE NO. 190 VYGON CORP. TONY J RIVERS
K851691 04/23/1985 WILLCOGEN MENINGITIDIS KIT ZL25 WELLCOME DIAGNOSTICS MAX D MOODY
K851427 04/10/1985 HEARING AID(ALL IN THE EAR) WOODARD HEARING AID CENTER PAUL E WOODARD


Search | Companies | Product Codes | Device Names | Contacts | Applications | Decisions | Contact